Time;durP1;ratioP1;P1;durP2;ratioP2;P2;SDS_P1;SDS_P2;PMS_P1;PMS_P2;Temp;Humidity;BMP_temperature;BMP_pressure;BME280_temperature;BME280_humidity;BME280_pressure;Samples;Min_cycle;Max_cycle;Signal;HPM_P1;HPM_P2
2023/03/19 00:00:43;;;;;;;17.73;15.93;;;12.20;99.90;;;;;;4973435;28;98258;-73
2023/03/19 00:03:10;;;;;;;17.25;15.32;;;12.20;99.90;;;;;;4974886;28;98086;-73
2023/03/19 00:05:37;;;;;;;17.05;15.35;;;12.10;99.90;;;;;;4975685;28;92470;-73
2023/03/19 00:08:04;;;;;;;17.50;15.70;;;12.10;99.90;;;;;;4976412;28;92455;-73
2023/03/19 00:10:31;;;;;;;17.67;15.88;;;12.10;99.90;;;;;;4991089;28;92614;-73
2023/03/19 00:12:58;;;;;;;18.00;16.15;;;12.00;99.90;;;;;;4973986;28;103875;-73
2023/03/19 00:15:25;;;;;;;18.27;16.38;;;11.90;99.90;;;;;;4974852;28;92579;-73
2023/03/19 00:17:53;;;;;;;19.27;17.05;;;11.90;99.90;;;;;;4976816;28;92248;-73
2023/03/19 00:20:21;;;;;;;18.48;16.52;;;11.80;99.90;;;;;;4975973;28;92486;-73
2023/03/19 00:22:48;;;;;;;20.30;18.17;;;11.70;99.90;;;;;;4991327;28;93480;-73
2023/03/19 00:25:14;;;;;;;19.73;17.63;;;11.70;99.90;;;;;;4973368;28;96054;-73
2023/03/19 00:27:43;;;;;;;21.30;18.70;;;11.70;99.90;;;;;;4976302;28;92478;-74
2023/03/19 00:30:10;;;;;;;22.73;18.67;;;11.70;99.90;;;;;;4957668;28;95690;-73
2023/03/19 00:32:38;;;;;;;21.70;19.40;;;11.70;99.90;;;;;;4974494;28;95613;-74
2023/03/19 00:35:06;;;;;;;22.05;18.65;;;11.70;99.90;;;;;;4975623;28;92441;-74
2023/03/19 00:37:33;;;;;;;20.08;18.00;;;11.80;99.90;;;;;;4976189;28;92570;-74
2023/03/19 00:40:01;;;;;;;20.80;18.52;;;11.80;99.90;;;;;;4975634;28;92491;-74
2023/03/19 00:42:28;;;;;;;20.60;18.00;;;11.80;99.90;;;;;;4990946;28;96066;-73
2023/03/19 00:44:55;;;;;;;19.85;17.75;;;11.90;99.90;;;;;;4958730;28;92989;-73
2023/03/19 00:47:23;;;;;;;19.90;17.80;;;11.80;99.90;;;;;;4990712;28;92554;-74
2023/03/19 00:49:50;;;;;;;19.80;17.63;;;11.80;99.90;;;;;;4973212;28;98020;-74
2023/03/19 00:52:18;;;;;;;21.17;18.17;;;11.90;99.90;;;;;;4974142;28;100814;-74
2023/03/19 00:54:45;;;;;;;21.27;18.90;;;11.90;99.90;;;;;;4975810;28;92546;-74
2023/03/19 00:57:11;;;;;;;21.30;19.05;;;11.90;99.90;;;;;;4974224;28;92601;-73
2023/03/19 00:59:38;;;;;;;21.63;18.10;;;11.90;99.90;;;;;;4990691;28;96272;-73
2023/03/19 01:02:05;;;;;;;19.88;17.88;;;11.90;99.90;;;;;;4990511;28;96153;-73
2023/03/19 01:04:32;;;;;;;23.17;18.30;;;12.00;99.90;;;;;;4957643;28;94462;-73
2023/03/19 01:07:00;;;;;;;20.00;17.90;;;12.00;99.90;;;;;;4974725;28;91746;-73
2023/03/19 01:09:26;;;;;;;22.52;19.30;;;12.00;99.90;;;;;;4990133;28;94674;-73
2023/03/19 01:11:53;;;;;;;20.70;18.33;;;12.00;99.90;;;;;;4974025;28;92531;-74
2023/03/19 01:14:20;;;;;;;21.23;19.02;;;12.00;99.90;;;;;;4956548;28;95697;-74
2023/03/19 01:16:47;;;;;;;19.23;17.20;;;12.00;99.90;;;;;;4973956;28;92608;-74
2023/03/19 01:19:15;;;;;;;20.15;18.05;;;12.00;99.90;;;;;;4974915;28;93272;-73
2023/03/19 01:21:45;;;;;;;22.08;18.88;;;12.00;99.90;;;;;;4990534;28;94607;-74
2023/03/19 01:24:15;;;;;;;19.10;17.10;;;12.00;99.90;;;;;;4973803;28;92410;-73
2023/03/19 01:26:43;;;;;;;21.15;18.95;;;12.00;99.90;;;;;;4974189;28;93059;-74
2023/03/19 01:29:20;;;;;;;20.00;17.90;;;12.00;99.90;;;;;;4975277;28;95571;-73
2023/03/19 01:31:47;;;;;;;20.55;18.02;;;12.00;99.90;;;;;;4990515;28;94159;-74
2023/03/19 01:34:52;;;;;;;19.25;17.00;;;12.00;99.90;;;;;;4966227;28;92536;-74
2023/03/19 01:37:20;;;;;;;20.30;18.15;;;12.00;99.90;;;;;;4975096;28;92475;-73
2023/03/19 01:39:47;;;;;;;18.63;16.52;;;12.00;99.90;;;;;;4972378;28;96641;-74
2023/03/19 01:42:14;;;;;;;19.15;17.02;;;12.00;99.90;;;;;;4973410;28;98062;-73
2023/03/19 01:45:02;;;;;;;20.77;17.98;;;12.00;99.90;;;;;;4974159;28;92441;-73
2023/03/19 01:47:59;;;;;;;18.27;16.48;;;12.00;99.90;;;;;;4973964;28;92434;-73
2023/03/19 01:50:52;;;;;;;19.02;17.02;;;12.00;99.90;;;;;;4975755;28;94044;-74
2023/03/19 01:53:49;;;;;;;18.08;16.08;;;12.00;99.90;;;;;;4990295;28;95258;-74
2023/03/19 01:56:28;;;;;;;19.35;17.38;;;12.00;99.90;;;;;;4989743;28;92456;-74
2023/03/19 01:59:13;;;;;;;17.70;15.90;;;12.10;99.90;;;;;;4990580;28;91822;-73
2023/03/19 02:02:06;;;;;;;19.38;16.10;;;12.10;99.90;;;;;;4974268;28;92967;-74
2023/03/19 02:04:36;;;;;;;18.20;16.02;;;12.10;99.90;;;;;;4989525;28;94461;-74
2023/03/19 02:07:05;;;;;;;18.98;16.70;;;12.10;99.90;;;;;;4972456;28;94828;-74
2023/03/19 02:09:32;;;;;;;18.00;16.08;;;12.10;99.90;;;;;;4956621;28;92533;-74
2023/03/19 02:12:01;;;;;;;19.35;17.27;;;12.20;99.90;;;;;;4990093;28;95679;-74
2023/03/19 02:14:28;;;;;;;19.23;17.23;;;12.20;99.90;;;;;;4989778;28;94525;-74
2023/03/19 02:16:55;;;;;;;19.23;16.70;;;12.20;99.90;;;;;;4957056;28;92387;-74
2023/03/19 02:19:34;;;;;;;18.67;16.73;;;12.20;99.90;;;;;;4989531;28;92528;-74
2023/03/19 02:22:03;;;;;;;20.23;17.30;;;12.30;99.90;;;;;;4973278;28;95700;-74
2023/03/19 02:24:44;;;;;;;20.20;16.40;;;12.20;99.90;;;;;;4973529;28;95294;-74
2023/03/19 02:27:13;;;;;;;17.63;14.93;;;12.30;99.90;;;;;;4989710;28;92511;-74
2023/03/19 02:29:44;;;;;;;16.08;14.43;;;12.20;99.90;;;;;;4976685;28;92548;-74
2023/03/19 02:32:12;;;;;;;18.00;16.10;;;12.20;99.90;;;;;;4975143;28;98159;-74
2023/03/19 02:34:41;;;;;;;19.33;16.80;;;12.20;99.90;;;;;;4976270;28;98038;-74
2023/03/19 02:37:29;;;;;;;20.25;17.17;;;12.20;99.90;;;;;;4977849;28;92676;-74
2023/03/19 02:40:04;;;;;;;19.15;17.15;;;12.20;99.90;;;;;;4960563;28;92461;-74
2023/03/19 02:42:31;;;;;;;20.25;17.85;;;12.10;99.90;;;;;;4992995;28;93810;-74
2023/03/19 02:44:58;;;;;;;19.08;17.00;;;12.10;99.90;;;;;;4976615;28;93085;-74
2023/03/19 02:47:26;;;;;;;22.00;16.83;;;12.10;99.90;;;;;;4976452;28;92456;-74
2023/03/19 02:49:53;;;;;;;20.27;15.82;;;12.10;99.90;;;;;;4978149;28;91793;-74
2023/03/19 02:52:20;;;;;;;19.65;15.82;;;12.10;99.90;;;;;;4975833;28;95783;-74
2023/03/19 02:54:47;;;;;;;17.30;14.23;;;12.10;99.90;;;;;;4977579;28;93045;-74
2023/03/19 02:57:14;;;;;;;16.13;13.77;;;12.10;99.90;;;;;;4975171;28;94865;-74
2023/03/19 02:59:41;;;;;;;16.15;13.27;;;12.10;99.90;;;;;;4992726;28;92804;-74
2023/03/19 03:02:09;;;;;;;16.30;13.80;;;12.10;99.90;;;;;;4959698;28;94723;-74
2023/03/19 03:04:36;;;;;;;16.70;14.95;;;12.10;99.90;;;;;;4977350;28;92417;-74
2023/03/19 03:07:04;;;;;;;19.83;15.27;;;12.10;99.90;;;;;;4976033;28;92457;-74
2023/03/19 03:09:31;;;;;;;16.92;14.45;;;12.10;99.90;;;;;;4975808;28;92871;-74
2023/03/19 03:11:58;;;;;;;17.50;13.90;;;12.10;99.90;;;;;;4974663;28;96323;-74
2023/03/19 03:14:25;;;;;;;16.17;13.27;;;12.10;99.90;;;;;;4976008;28;94089;-74
2023/03/19 03:16:52;;;;;;;14.23;12.73;;;12.10;99.90;;;;;;4992539;28;92609;-74
2023/03/19 03:19:19;;;;;;;16.25;12.82;;;12.10;99.90;;;;;;4977412;28;92497;-74
2023/03/19 03:21:48;;;;;;;13.35;11.85;;;12.10;99.90;;;;;;4974352;28;98212;-74
2023/03/19 03:24:15;;;;;;;14.18;12.75;;;12.10;99.90;;;;;;4975622;28;98066;-74
2023/03/19 03:26:43;;;;;;;13.45;12.05;;;12.10;99.90;;;;;;4992016;28;92493;-74
2023/03/19 03:29:13;;;;;;;12.65;11.45;;;12.10;99.90;;;;;;4975727;28;94107;-74
2023/03/19 03:31:40;;;;;;;11.48;10.27;;;12.10;99.90;;;;;;4975193;28;95701;-74
2023/03/19 03:34:07;;;;;;;12.13;10.10;;;12.10;99.90;;;;;;4976846;28;92966;-74
2023/03/19 03:36:34;;;;;;;12.23;10.90;;;12.10;99.90;;;;;;4976845;28;92498;-74
2023/03/19 03:39:03;;;;;;;10.73;9.63;;;12.10;99.90;;;;;;4991608;28;91787;-74
2023/03/19 03:41:30;;;;;;;12.43;10.77;;;12.10;99.90;;;;;;4992362;28;96107;-74
2023/03/19 03:43:57;;;;;;;12.13;10.88;;;12.00;99.90;;;;;;4975141;28;96173;-74
2023/03/19 03:46:24;;;;;;;13.00;10.85;;;12.00;99.90;;;;;;4974336;28;94853;-74
2023/03/19 03:48:51;;;;;;;12.38;11.07;;;12.00;99.90;;;;;;4975163;28;92583;-74
2023/03/19 03:51:19;;;;;;;12.98;10.25;;;12.00;99.90;;;;;;4975280;28;95693;-74
2023/03/19 03:53:46;;;;;;;13.23;10.23;;;12.00;99.90;;;;;;4958937;28;95616;-74
2023/03/19 03:56:13;;;;;;;11.45;10.25;;;12.00;99.90;;;;;;4959006;28;92495;-74
2023/03/19 03:58:41;;;;;;;12.18;10.98;;;12.00;99.90;;;;;;4958900;28;92488;-74
2023/03/19 04:01:15;;;;;;;11.02;9.98;;;12.00;99.90;;;;;;4991457;28;95738;-74
2023/03/19 04:03:45;;;;;;;10.82;9.60;;;12.00;99.90;;;;;;4975132;28;94816;-74
2023/03/19 04:06:23;;;;;;;10.70;9.60;;;12.00;99.90;;;;;;4992199;28;92582;-74
2023/03/19 04:09:09;;;;;;;10.13;9.13;;;12.00;99.90;;;;;;4975581;28;92545;-74
2023/03/19 04:11:37;;;;;;;10.02;8.95;;;11.90;99.90;;;;;;4973443;28;97890;-74
2023/03/19 04:14:05;;;;;;;10.90;9.40;;;11.80;99.90;;;;;;4959208;28;98046;-74
2023/03/19 04:16:34;;;;;;;10.15;9.10;;;11.80;99.90;;;;;;4991989;28;92441;-74
2023/03/19 04:19:01;;;;;;;9.77;8.77;;;11.80;99.90;;;;;;4992273;28;92805;-74
2023/03/19 04:21:28;;;;;;;10.85;9.75;;;11.80;99.90;;;;;;4991785;28;95867;-74
2023/03/19 04:23:56;;;;;;;9.70;8.70;;;11.80;99.90;;;;;;4974951;28;95382;-74
2023/03/19 04:26:23;;;;;;;10.25;9.23;;;11.80;99.90;;;;;;4991969;28;92454;-74
2023/03/19 04:28:50;;;;;;;9.70;8.70;;;11.80;99.90;;;;;;4992231;28;91788;-72
2023/03/19 04:31:17;;;;;;;9.98;8.93;;;11.80;99.90;;;;;;4975014;28;95592;-72
2023/03/19 04:33:44;;;;;;;9.80;8.90;;;11.80;99.90;;;;;;4974808;28;95347;-72
2023/03/19 04:36:11;;;;;;;9.45;8.55;;;11.90;99.90;;;;;;4990527;28;95449;-74
2023/03/19 04:38:38;;;;;;;9.20;8.27;;;11.90;99.90;;;;;;4975068;28;93052;-74
2023/03/19 04:41:05;;;;;;;9.70;8.70;;;11.90;99.90;;;;;;4975022;28;96016;-74
2023/03/19 04:43:39;;;;;;;9.88;8.85;;;11.90;99.90;;;;;;4991434;28;93926;-74
2023/03/19 04:46:07;;;;;;;9.35;8.38;;;12.00;99.90;;;;;;4991501;28;92521;-74
2023/03/19 04:48:35;;;;;;;8.82;7.80;;;11.90;99.90;;;;;;4991781;28;92848;-74
2023/03/19 04:51:02;;;;;;;8.60;7.80;;;12.00;99.90;;;;;;4974535;28;94313;-74
2023/03/19 04:53:30;;;;;;;7.60;6.90;;;12.00;99.90;;;;;;4991848;28;95528;-74
2023/03/19 04:55:57;;;;;;;8.40;7.20;;;12.00;99.90;;;;;;4974835;28;92555;-74
2023/03/19 04:58:24;;;;;;;9.23;8.10;;;12.00;99.90;;;;;;4976486;28;92481;-74
2023/03/19 05:00:57;;;;;;;7.72;6.93;;;12.00;99.90;;;;;;4973384;28;97915;-74
2023/03/19 05:03:44;;;;;;;7.35;6.65;;;12.00;99.90;;;;;;4975829;28;96062;-74
2023/03/19 05:06:11;;;;;;;8.98;7.13;;;12.10;99.90;;;;;;4991599;28;92478;-74
2023/03/19 05:08:38;;;;;;;7.78;6.90;;;12.10;99.90;;;;;;4991543;28;92476;-74
2023/03/19 05:11:05;;;;;;;7.15;6.40;;;12.10;99.90;;;;;;4990598;28;95728;-74
2023/03/19 05:13:52;;;;;;;7.60;6.88;;;12.10;99.90;;;;;;4973994;28;95025;-74
2023/03/19 05:16:19;;;;;;;6.22;5.63;;;12.10;99.90;;;;;;4958313;28;93063;-74
2023/03/19 05:18:46;;;;;;;7.13;6.22;;;12.10;99.90;;;;;;4958421;28;91834;-74
2023/03/19 05:21:14;;;;;;;7.00;6.03;;;12.10;99.90;;;;;;4974513;28;94238;-74
2023/03/19 05:23:42;;;;;;;6.43;5.82;;;12.10;99.90;;;;;;4990548;28;95246;-74
2023/03/19 05:26:10;;;;;;;5.72;5.18;;;12.10;99.90;;;;;;4989927;28;94913;-74
2023/03/19 05:28:56;;;;;;;6.43;5.82;;;12.00;99.90;;;;;;4975779;28;92466;-74
2023/03/19 05:31:32;;;;;;;6.10;5.50;;;12.00;99.90;;;;;;4959403;28;95561;-74
2023/03/19 05:33:59;;;;;;;6.35;5.82;;;11.90;99.90;;;;;;4975505;28;92920;-74
2023/03/19 05:36:28;;;;;;;8.32;6.00;;;11.80;99.90;;;;;;4990835;28;92568;-74
2023/03/19 05:39:05;;;;;;;6.07;5.50;;;11.80;99.90;;;;;;4959122;28;92541;-74
2023/03/19 05:41:35;;;;;;;8.52;5.90;;;11.70;99.90;;;;;;4958594;28;95091;-74
2023/03/19 05:44:05;;;;;;;6.35;5.75;;;11.70;99.90;;;;;;4990524;28;95475;-74
2023/03/19 05:46:48;;;;;;;7.68;5.75;;;11.70;99.90;;;;;;4988589;28;92767;-74
2023/03/19 05:49:17;;;;;;;7.05;5.25;;;11.70;99.90;;;;;;4958347;28;92527;-74
2023/03/19 05:51:44;;;;;;;6.80;6.07;;;11.70;99.90;;;;;;4989285;28;98223;-74
2023/03/19 05:54:11;;;;;;;7.65;6.53;;;11.70;99.90;;;;;;4990471;28;97935;-74
2023/03/19 05:56:47;;;;;;;6.40;5.70;;;11.70;99.90;;;;;;4975509;28;92694;-74
2023/03/19 05:59:33;;;;;;;6.40;5.72;;;11.70;99.90;;;;;;4974131;28;92598;-74
2023/03/19 06:02:19;;;;;;;5.93;5.32;;;11.60;99.90;;;;;;4960322;28;95249;-74
2023/03/19 06:04:47;;;;;;;6.50;5.90;;;11.60;99.90;;;;;;4993728;28;93924;-74
2023/03/19 06:07:17;;;;;;;6.88;6.03;;;11.50;99.90;;;;;;4994200;28;92435;-74
2023/03/19 06:09:44;;;;;;;6.90;6.20;;;11.50;99.90;;;;;;4977798;28;91783;-74
2023/03/19 06:12:12;;;;;;;6.22;5.72;;;11.40;99.90;;;;;;4993252;28;95312;-74
2023/03/19 06:14:57;;;;;;;6.60;6.00;;;11.40;99.90;;;;;;4975484;28;92413;-74
2023/03/19 06:17:43;;;;;;;6.78;6.18;;;11.40;99.90;;;;;;4976620;28;95609;-74
2023/03/19 06:20:13;;;;;;;6.43;5.82;;;11.30;99.90;;;;;;4993669;28;92537;-74
2023/03/19 06:22:40;;;;;;;6.72;5.60;;;11.30;99.90;;;;;;4977406;28;95562;-74
2023/03/19 06:25:08;;;;;;;7.32;6.50;;;11.40;99.90;;;;;;4976954;28;95354;-74
2023/03/19 06:27:36;;;;;;;7.05;6.35;;;11.40;99.90;;;;;;4993819;28;92461;-74
2023/03/19 06:30:25;;;;;;;6.75;6.13;;;11.50;99.90;;;;;;4980303;28;92498;-74
2023/03/19 06:32:54;;;;;;;6.70;5.63;;;11.50;99.90;;;;;;4993152;28;95174;-74
2023/03/19 06:35:22;;;;;;;7.35;6.22;;;11.60;99.90;;;;;;4961238;28;94873;-74
2023/03/19 06:37:51;;;;;;;6.25;5.65;;;11.70;99.90;;;;;;4993434;28;92533;-74
2023/03/19 06:40:18;;;;;;;7.55;6.78;;;11.70;99.90;;;;;;4978341;28;92487;-74
2023/03/19 06:42:46;;;;;;;6.60;6.03;;;11.80;99.90;;;;;;4977127;28;95696;-74
2023/03/19 06:45:17;;;;;;;7.53;6.80;;;11.80;99.90;;;;;;4960500;28;97732;-74
2023/03/19 06:47:46;;;;;;;8.75;6.10;;;11.80;99.90;;;;;;4978379;28;92388;-74
2023/03/19 06:50:15;;;;;;;6.78;6.18;;;11.90;99.90;;;;;;4993456;28;93071;-74
2023/03/19 06:52:42;;;;;;;7.53;6.20;;;11.90;99.90;;;;;;4976278;28;106545;-74
2023/03/19 06:55:11;;;;;;;7.45;6.75;;;11.90;99.90;;;;;;4993023;28;95655;-74
2023/03/19 06:57:38;;;;;;;7.20;6.47;;;12.00;99.90;;;;;;4993419;28;92506;-74
2023/03/19 07:00:06;;;;;;;7.05;6.15;;;11.90;99.90;;;;;;4978256;28;91785;-74
2023/03/19 07:02:33;;;;;;;7.40;6.72;;;11.90;99.90;;;;;;4976126;28;94277;-74
2023/03/19 07:05:00;;;;;;;8.05;6.90;;;11.90;99.90;;;;;;4976711;28;93004;-74
2023/03/19 07:07:27;;;;;;;8.82;6.93;;;11.90;99.90;;;;;;4975079;28;101238;-74
2023/03/19 07:09:53;;;;;;;7.75;7.05;;;11.80;99.90;;;;;;4976742;28;93225;-74
2023/03/19 07:12:20;;;;;;;7.97;7.20;;;11.80;99.90;;;;;;4992626;28;95761;-74
2023/03/19 07:14:47;;;;;;;7.97;7.18;;;11.80;99.90;;;;;;4977596;28;92979;-74
2023/03/19 07:17:14;;;;;;;10.15;7.28;;;11.70;99.90;;;;;;4959871;28;92526;-74
2023/03/19 07:19:41;;;;;;;9.32;8.38;;;11.70;99.90;;;;;;4978032;28;92776;-74
2023/03/19 07:22:08;;;;;;;10.52;9.57;;;11.60;99.90;;;;;;4976064;28;95005;-74
2023/03/19 07:24:35;;;;;;;12.70;8.52;;;11.60;99.90;;;;;;4976516;28;95558;-74
2023/03/19 07:27:02;;;;;;;10.63;9.75;;;11.60;99.90;;;;;;4992679;28;92542;-74
2023/03/19 07:29:29;;;;;;;9.00;8.10;;;11.60;99.90;;;;;;4977619;28;92981;-75
2023/03/19 07:31:56;;;;;;;7.90;7.10;;;11.60;99.90;;;;;;4991482;28;95638;-74
2023/03/19 07:34:23;;;;;;;10.35;8.32;;;11.60;99.90;;;;;;4977255;28;96336;-74
2023/03/19 07:36:51;;;;;;;9.65;8.00;;;11.60;99.90;;;;;;4977442;28;92954;-74
2023/03/19 07:39:19;;;;;;;8.25;7.40;;;11.70;99.90;;;;;;4992460;28;95592;-74
2023/03/19 07:41:47;;;;;;;8.25;7.32;;;11.70;99.90;;;;;;4975925;28;95759;-74
2023/03/19 07:44:15;;;;;;;8.07;6.97;;;11.80;99.90;;;;;;4992295;28;93919;-74
2023/03/19 07:46:42;;;;;;;7.57;6.88;;;11.80;99.90;;;;;;4992873;28;92514;-74
2023/03/19 07:49:09;;;;;;;9.27;7.47;;;11.80;99.90;;;;;;4977548;28;91741;-74
2023/03/19 07:51:36;;;;;;;7.65;7.00;;;11.90;99.90;;;;;;4977323;28;93328;-74
2023/03/19 07:54:03;;;;;;;7.50;6.80;;;12.00;99.90;;;;;;4976954;28;92980;-74
2023/03/19 07:56:30;;;;;;;7.45;6.75;;;12.10;99.90;;;;;;4976093;28;94891;-74
2023/03/19 07:58:58;;;;;;;7.35;6.60;;;12.20;99.90;;;;;;4959585;28;92479;-74
2023/03/19 08:01:25;;;;;;;9.13;8.23;;;12.40;99.90;;;;;;4976717;28;93325;-74
2023/03/19 08:03:52;;;;;;;8.90;8.05;;;12.70;99.90;;;;;;4977025;28;93011;-74
2023/03/19 08:06:19;;;;;;;6.85;6.25;;;13.00;99.90;;;;;;4975619;28;92545;-74
2023/03/19 08:08:46;;;;;;;9.07;8.18;;;13.30;99.90;;;;;;4977063;28;92445;-74
2023/03/19 08:11:14;;;;;;;7.28;6.57;;;13.70;99.90;;;;;;4991435;28;93282;-74
2023/03/19 08:13:41;;;;;;;7.47;6.75;;;14.00;99.90;;;;;;4977286;28;92989;-74
2023/03/19 08:16:08;;;;;;;8.25;7.55;;;14.20;99.90;;;;;;4991863;28;92552;-74
2023/03/19 08:18:36;;;;;;;7.25;6.57;;;14.30;99.90;;;;;;4991843;28;92541;-74
2023/03/19 08:21:03;;;;;;;7.57;6.28;;;14.30;99.90;;;;;;4990681;28;95844;-75
2023/03/19 08:23:30;;;;;;;7.85;7.13;;;14.40;99.90;;;;;;4974876;28;96488;-74
2023/03/19 08:25:57;;;;;;;9.07;8.25;;;14.60;99.90;;;;;;4991376;28;93060;-74
2023/03/19 08:28:24;;;;;;;8.40;7.65;;;14.70;99.90;;;;;;4990775;28;92545;-74
2023/03/19 08:30:51;;;;;;;8.70;7.95;;;14.70;99.90;;;;;;4974993;28;103999;-74
2023/03/19 08:33:18;;;;;;;7.93;7.03;;;14.80;99.90;;;;;;4975268;28;92933;-75
2023/03/19 08:35:45;;;;;;;9.60;8.55;;;14.90;99.90;;;;;;4976795;28;92512;-74
2023/03/19 08:38:12;;;;;;;8.88;7.90;;;14.90;99.90;;;;;;4976592;28;91749;-74
2023/03/19 08:40:39;;;;;;;9.10;8.25;;;15.00;99.90;;;;;;4976456;28;93240;-74
2023/03/19 08:43:06;;;;;;;10.80;9.85;;;15.00;99.90;;;;;;4975152;28;92812;-74
2023/03/19 08:45:33;;;;;;;11.98;10.80;;;15.10;99.90;;;;;;4990402;28;95339;-74
2023/03/19 08:48:00;;;;;;;12.68;10.88;;;15.10;99.90;;;;;;4974485;28;92523;-74
2023/03/19 08:50:27;;;;;;;12.48;11.27;;;15.10;99.90;;;;;;4975515;28;93286;-74
2023/03/19 08:52:55;;;;;;;12.30;11.10;;;15.20;99.90;;;;;;4974171;28;93002;-74
2023/03/19 08:55:22;;;;;;;11.70;10.40;;;15.30;99.90;;;;;;4974187;28;92456;-74
2023/03/19 08:57:49;;;;;;;12.18;10.93;;;15.40;99.90;;;;;;4975649;28;92410;-74
2023/03/19 09:00:16;;;;;;;12.88;11.57;;;15.50;99.90;;;;;;4974248;28;94484;-74
2023/03/19 09:02:43;;;;;;;13.45;11.52;;;15.70;99.90;;;;;;4958522;28;95587;-74
2023/03/19 09:05:10;;;;;;;12.95;11.50;;;15.90;99.90;;;;;;4974348;28;92496;-75
2023/03/19 09:07:37;;;;;;;12.35;10.63;;;16.00;99.90;;;;;;4990978;28;92505;-74
2023/03/19 09:10:04;;;;;;;12.25;11.05;;;16.10;99.90;;;;;;4972883;28;96743;-74
2023/03/19 09:12:32;;;;;;;11.60;10.50;;;16.10;99.90;;;;;;4974930;28;95775;-75
2023/03/19 09:14:59;;;;;;;12.10;11.00;;;16.10;99.90;;;;;;4975485;28;92474;-74
2023/03/19 09:17:26;;;;;;;13.27;11.55;;;16.10;99.90;;;;;;4975370;28;92486;-73
2023/03/19 09:19:53;;;;;;;12.50;11.20;;;16.10;99.90;;;;;;4974788;28;103758;-73
2023/03/19 09:22:20;;;;;;;12.48;11.15;;;16.10;99.90;;;;;;4974049;28;93122;-73
2023/03/19 09:24:46;;;;;;;12.18;10.93;;;16.10;99.90;;;;;;4974380;28;92567;-74
2023/03/19 09:27:14;;;;;;;11.15;10.13;;;16.00;99.90;;;;;;4975615;28;91717;-74
2023/03/19 09:29:41;;;;;;;11.57;10.38;;;16.10;99.90;;;;;;4974021;28;95781;-74
2023/03/19 09:32:08;;;;;;;11.18;10.07;;;16.20;99.90;;;;;;4975299;28;92515;-74
2023/03/19 09:34:35;;;;;;;11.13;10.02;;;16.30;99.90;;;;;;4988871;28;94865;-74
2023/03/19 09:37:02;;;;;;;11.57;10.43;;;16.50;99.90;;;;;;4975155;28;92483;-74
2023/03/19 09:39:29;;;;;;;10.25;9.25;;;16.70;99.90;;;;;;4973613;28;92986;-74
2023/03/19 09:42:36;;;;;;;11.55;10.43;;;16.90;99.90;;;;;;4974407;28;95546;-74
2023/03/19 09:45:10;;;;;;;10.63;9.63;;;17.30;99.90;;;;;;4975355;28;92483;-74
2023/03/19 09:47:38;;;;;;;;;;;17.30;99.90;;;;;;4991173;28;92567;-74
2023/03/19 09:50:27;;;;;;;10.02;9.02;;;17.30;99.90;;;;;;4975451;28;93117;-74
2023/03/19 09:53:05;;;;;;;10.00;9.10;;;17.50;99.90;;;;;;4990740;28;95952;-74
2023/03/19 09:55:32;;;;;;;9.90;8.93;;;17.60;99.90;;;;;;4990813;28;92537;-74
2023/03/19 09:58:01;;;;;;;9.02;8.32;;;17.70;99.90;;;;;;4990615;28;93234;-74
2023/03/19 10:00:36;;;;;;;9.70;8.80;;;17.80;99.90;;;;;;4973844;28;95873;-74
2023/03/19 10:03:13;;;;;;;10.02;9.13;;;17.90;99.90;;;;;;4975388;28;95200;-74
2023/03/19 10:06:02;;;;;;;9.77;8.73;;;18.00;99.90;;;;;;4990446;28;92483;-74
2023/03/19 10:08:56;;;;;;;9.75;8.82;;;18.10;99.90;;;;;;4990813;28;93064;-74
2023/03/19 10:11:39;;;;;;;10.15;9.18;;;18.00;99.90;;;;;;4974651;28;93300;-74
2023/03/19 10:14:27;;;;;;;13.07;10.10;;;17.80;99.90;;;;;;4975131;28;92913;-74
2023/03/19 10:17:00;;;;;;;9.57;8.57;;;17.80;99.90;;;;;;4975046;28;92402;-74
2023/03/19 10:20:01;;;;;;;8.65;7.72;;;17.80;99.90;;;;;;4975754;28;92372;-74
2023/03/19 10:22:35;;;;;;;7.70;6.90;;;17.80;99.90;;;;;;4954833;28;92415;-74
2023/03/19 10:25:04;;;;;;;7.85;7.15;;;17.70;99.90;;;;;;4990479;28;94546;-74
2023/03/19 10:27:31;;;;;;;7.15;6.55;;;17.70;99.90;;;;;;4972615;28;94912;-74
2023/03/19 10:29:58;;;;;;;7.68;6.97;;;17.80;99.90;;;;;;4990337;28;92548;-74
2023/03/19 10:32:40;;;;;;;6.47;5.97;;;18.00;99.90;;;;;;4974809;28;93357;-74
2023/03/19 10:35:15;;;;;;;6.60;6.07;;;18.10;99.90;;;;;;4990344;28;95401;-74
2023/03/19 10:37:42;;;;;;;6.97;6.38;;;18.20;99.90;;;;;;4975133;28;92909;-74
2023/03/19 10:40:33;;;;;;;6.45;5.85;;;18.10;99.90;;;;;;4974963;28;96336;-74
2023/03/19 10:43:18;;;;;;;6.90;5.80;;;18.30;99.90;;;;;;4990101;28;96187;-74
2023/03/19 10:45:47;;;;;;;6.65;6.05;;;18.40;99.90;;;;;;4975168;28;92719;-74
2023/03/19 10:48:16;;;;;;;6.30;5.70;;;18.50;99.90;;;;;;4975068;28;92424;-74
2023/03/19 10:50:49;;;;;;;6.90;6.30;;;18.60;99.90;;;;;;4977124;28;92584;-74
2023/03/19 10:53:26;;;;;;;6.70;6.13;;;18.70;99.90;;;;;;4991932;28;98301;-74
2023/03/19 10:56:02;;;;;;;6.90;6.25;;;18.80;99.90;;;;;;4976689;28;97874;-74
2023/03/19 10:58:32;;;;;;;6.40;5.68;;;19.00;99.90;;;;;;4978206;28;92517;-74
2023/03/19 11:01:09;;;;;;;6.47;5.88;;;19.10;99.90;;;;;;4978119;28;92443;-74
2023/03/19 11:04:01;;;;;;;6.05;5.40;;;19.20;99.90;;;;;;4977937;28;93077;-74
2023/03/19 11:06:36;;;;;;;7.68;5.88;;;19.30;99.90;;;;;;4976291;28;95668;-74
2023/03/19 11:09:12;;;;;;;5.55;5.10;;;19.30;99.90;;;;;;4977974;28;92455;-74
2023/03/19 11:11:44;;;;;;;6.10;5.50;;;19.30;99.90;;;;;;4992938;28;92761;-74
2023/03/19 11:14:35;;;;;;;5.93;5.43;;;19.40;99.90;;;;;;4977636;28;94407;-75
2023/03/19 11:17:22;;;;;;;5.63;5.03;;;19.50;99.90;;;;;;4993203;28;92967;-75
2023/03/19 11:19:53;;;;;;;6.93;6.32;;;19.50;99.90;;;;;;4991725;28;94841;-75
2023/03/19 11:22:32;;;;;;;6.88;6.35;;;19.60;99.90;;;;;;4992899;28;92370;-75
2023/03/19 11:25:13;;;;;;;6.85;6.28;;;19.80;99.90;;;;;;4977575;28;93339;-75
2023/03/19 11:27:40;;;;;;;6.68;6.05;;;19.80;99.80;;;;;;4992726;28;92549;-75
2023/03/19 11:30:17;;;;;;;7.40;6.57;;;19.70;99.70;;;;;;4977738;28;92459;-75
2023/03/19 11:32:59;;;;;;;6.60;6.05;;;19.80;99.90;;;;;;4977810;28;92948;-75
2023/03/19 11:35:41;;;;;;;6.60;6.10;;;19.80;99.20;;;;;;4977477;28;93164;-75
2023/03/19 11:38:17;;;;;;;7.47;6.78;;;19.60;99.00;;;;;;4976755;28;92957;-74
2023/03/19 11:41:07;;;;;;;8.20;6.90;;;19.50;99.40;;;;;;4992387;28;92466;-74
2023/03/19 11:43:44;;;;;;;6.88;6.25;;;19.40;99.60;;;;;;4977544;28;92566;-75
2023/03/19 11:46:37;;;;;;;7.93;7.10;;;19.30;99.60;;;;;;4976009;28;95726;-75
2023/03/19 11:49:19;;;;;;;7.85;7.13;;;19.30;99.80;;;;;;4973176;28;98042;-75
2023/03/19 11:52:13;;;;;;;8.32;7.45;;;19.20;99.70;;;;;;4977552;28;92523;-75
2023/03/19 11:54:46;;;;;;;;;;;19.10;99.80;;;;;;4948678;28;92495;-75
2023/03/19 11:57:41;;;;;;;8.10;7.30;;;18.80;99.90;;;;;;4978500;28;93288;-75
2023/03/19 12:00:30;;;;;;;8.18;7.38;;;18.80;99.90;;;;;;4974153;28;94553;-75
2023/03/19 12:03:18;;;;;;;8.48;7.68;;;18.70;99.90;;;;;;4977150;28;92404;-75
2023/03/19 12:06:03;;;;;;;9.10;8.10;;;18.60;99.90;;;;;;4977363;28;91692;-75
2023/03/19 12:08:48;;;;;;;9.18;8.27;;;18.50;99.90;;;;;;4975549;28;94612;-74
2023/03/19 12:11:31;;;;;;;8.88;7.97;;;18.60;99.90;;;;;;4975304;28;95663;-74
2023/03/19 12:14:16;;;;;;;9.27;8.38;;;18.80;99.90;;;;;;4974229;28;94947;-74
2023/03/19 12:17:16;;;;;;;8.40;7.65;;;18.80;99.90;;;;;;4992116;28;92908;-74
2023/03/19 12:20:04;;;;;;;8.65;7.70;;;19.00;99.90;;;;;;4976414;28;97402;-75
2023/03/19 12:22:56;;;;;;;8.85;8.05;;;19.10;99.90;;;;;;4992010;28;96019;-74
2023/03/19 12:25:33;;;;;;;8.63;7.82;;;19.20;99.90;;;;;;4977066;28;92452;-75
2023/03/19 12:28:19;;;;;;;8.70;7.93;;;19.10;99.90;;;;;;4976803;28;93092;-75
2023/03/19 12:31:07;;;;;;;9.00;8.20;;;19.00;99.90;;;;;;4991618;28;95787;-74
2023/03/19 12:34:18;;;;;;;9.88;8.98;;;18.90;99.90;;;;;;4992086;28;94044;-75
2023/03/19 12:36:53;;;;;;;9.32;8.18;;;19.10;99.90;;;;;;4975202;28;92537;-75
2023/03/19 12:39:33;;;;;;;9.80;8.80;;;19.00;99.90;;;;;;4992079;28;92915;-74
2023/03/19 12:42:03;;;;;;;10.25;9.25;;;19.00;99.90;;;;;;4989863;28;98205;-75
2023/03/19 12:44:39;;;;;;;10.43;9.48;;;18.90;99.90;;;;;;4991601;28;95456;-74
2023/03/19 12:47:21;;;;;;;9.38;8.48;;;18.90;99.90;;;;;;4958690;28;92738;-74
2023/03/19 12:49:51;;;;;;;9.90;8.98;;;18.90;99.90;;;;;;4991681;28;93179;-75
2023/03/19 12:52:30;;;;;;;9.50;8.70;;;18.80;99.90;;;;;;4976234;28;94471;-74
2023/03/19 12:55:24;;;;;;;10.80;9.80;;;18.70;99.90;;;;;;4976073;28;93147;-75
2023/03/19 12:57:53;;;;;;;;;;;18.70;99.90;;;;;;4992111;28;93014;-74
2023/03/19 13:00:54;;;;;;;9.48;8.05;;;18.40;99.90;;;;;;4993009;28;91795;-74
2023/03/19 13:03:36;;;;;;;8.98;8.07;;;18.40;99.90;;;;;;4976332;28;93249;-74